createdAt,value
2023-02-02T00:01:24.884Z,2.01
2023-02-02T00:03:52.542Z,2.51
2023-02-02T00:06:20.881Z,2.75
2023-02-02T00:08:48.354Z,2.80
2023-02-02T00:11:16.448Z,2.81
2023-02-02T00:13:43.557Z,3.04
2023-02-02T00:16:29.679Z,2.88
2023-02-02T00:18:58.421Z,2.09
2023-02-02T00:21:25.823Z,2.44
2023-02-02T00:23:53.795Z,2.46
2023-02-02T00:26:21.585Z,2.10
2023-02-02T00:28:48.567Z,1.99
2023-02-02T00:31:15.679Z,2.43
2023-02-02T00:33:49.987Z,2.10
2023-02-02T00:36:17.632Z,2.31
2023-02-02T00:38:44.714Z,2.46
2023-02-02T00:41:11.685Z,2.56
2023-02-02T00:43:39.048Z,2.84
2023-02-02T00:46:06.633Z,2.68
2023-02-02T00:48:33.666Z,2.57
2023-02-02T00:51:02.563Z,2.49
2023-02-02T00:53:29.308Z,2.29
2023-02-02T00:55:56.081Z,2.33
2023-02-02T00:58:23.082Z,1.92
2023-02-02T01:00:50.042Z,2.05
2023-02-02T01:03:16.912Z,2.29
2023-02-02T01:05:43.993Z,2.15
2023-02-02T01:08:10.994Z,2.73
2023-02-02T01:10:37.730Z,2.45
2023-02-02T01:13:04.614Z,2.69
2023-02-02T01:15:31.538Z,2.42
2023-02-02T01:17:58.666Z,2.13
2023-02-02T01:20:26.217Z,2.04
2023-02-02T01:22:53.116Z,2.51
2023-02-02T01:25:20.108Z,2.67
2023-02-02T01:27:47.316Z,2.64
2023-02-02T01:30:15.398Z,2.94
2023-02-02T01:32:42.323Z,2.51
2023-02-02T01:35:10.519Z,2.75
2023-02-02T01:37:38.836Z,2.39
2023-02-02T01:40:06.711Z,2.25
2023-02-02T01:42:33.544Z,2.22
2023-02-02T01:45:25.738Z,2.27
2023-02-02T01:47:56.798Z,2.23
2023-02-02T01:50:31.198Z,2.47
2023-02-02T01:52:59.889Z,2.43
2023-02-02T01:55:29.248Z,2.24
2023-02-02T01:58:08.859Z,2.40
2023-02-02T02:00:40.130Z,2.14
2023-02-02T02:03:12.940Z,2.03
2023-02-02T02:05:46.720Z,2.18
2023-02-02T02:08:27.942Z,2.20
2023-02-02T02:10:54.972Z,2.26
2023-02-02T02:13:45.506Z,2.48
2023-02-02T02:16:24.243Z,2.68
2023-02-02T02:19:15.166Z,2.53
2023-02-02T02:22:26.696Z,2.27
2023-02-02T02:25:30.181Z,2.41
2023-02-02T02:28:23.489Z,2.08
2023-02-02T02:30:57.625Z,2.51
2023-02-02T02:33:49.252Z,2.06
2023-02-02T02:36:24.453Z,1.79
2023-02-02T02:39:15.719Z,2.30
2023-02-02T02:41:49.954Z,2.00
2023-02-02T02:44:18.383Z,1.89
2023-02-02T02:46:46.085Z,2.08
2023-02-02T02:49:14.147Z,1.89
2023-02-02T02:51:51.518Z,1.99
2023-02-02T02:54:41.506Z,2.25
2023-02-02T02:57:23.506Z,2.37
2023-02-02T03:00:14.802Z,1.91
2023-02-02T03:02:57.752Z,1.98
2023-02-02T03:05:39.860Z,1.40
2023-02-02T03:08:12.589Z,1.16
2023-02-02T03:10:41.989Z,0.91
2023-02-02T03:13:11.292Z,1.54
2023-02-02T03:15:41.805Z,1.46
2023-02-02T03:18:09.209Z,1.19
2023-02-02T03:20:36.425Z,1.35
2023-02-02T03:23:03.320Z,1.03
2023-02-02T03:25:30.585Z,1.26
2023-02-02T03:27:58.808Z,1.22
2023-02-02T03:30:26.190Z,0.73
2023-02-02T03:32:53.584Z,0.92
2023-02-02T03:35:23.551Z,0.65
2023-02-02T03:37:50.808Z,0.89
2023-02-02T03:40:18.059Z,1.12
2023-02-02T03:42:44.847Z,1.17
2023-02-02T03:45:11.941Z,1.40
2023-02-02T03:47:39.031Z,1.25
2023-02-02T03:50:08.189Z,0.80
2023-02-02T03:52:36.496Z,1.07
2023-02-02T03:55:04.708Z,1.01
2023-02-02T03:57:31.765Z,0.94
2023-02-02T03:59:58.534Z,0.92
2023-02-02T04:02:25.439Z,0.42
2023-02-02T04:04:52.139Z,0.46
2023-02-02T04:07:19.219Z,0.59
2023-02-02T04:09:47.198Z,0.45
2023-02-02T04:12:13.944Z,0.27
2023-02-02T04:14:40.649Z,0.60
2023-02-02T04:17:07.458Z,3.17
2023-02-02T04:19:34.484Z,1.37
2023-02-02T04:22:03.789Z,0.65
2023-02-02T04:24:30.676Z,0.54
2023-02-02T04:26:57.580Z,0.87
2023-02-02T04:29:26.452Z,0.91
2023-02-02T04:31:53.430Z,0.61
2023-02-02T04:34:20.319Z,0.13
2023-02-02T04:36:47.771Z,0.24
2023-02-02T04:39:15.128Z,0.54
2023-02-02T04:41:41.907Z,0.67
2023-02-02T04:44:15.767Z,0.62
2023-02-02T04:46:43.872Z,0.20
2023-02-02T04:49:12.129Z,-0.01
2023-02-02T04:51:39.884Z,0.26
2023-02-02T04:54:07.378Z,0.56
2023-02-02T04:56:34.685Z,0.66
2023-02-02T04:59:01.851Z,0.67
2023-02-02T05:01:30.444Z,0.52
2023-02-02T05:03:57.459Z,0.72
2023-02-02T05:06:24.463Z,0.84
2023-02-02T05:08:51.541Z,0.54
2023-02-02T05:11:23.265Z,0.48
2023-02-02T05:13:53.128Z,0.68
2023-02-02T05:16:20.856Z,0.50
2023-02-02T05:18:52.972Z,0.32
2023-02-02T05:21:20.773Z,0.32
2023-02-02T05:23:47.629Z,0.55
2023-02-02T05:26:21.882Z,0.50
2023-02-02T05:28:48.968Z,0.59
2023-02-02T05:31:15.751Z,0.43
2023-02-02T05:33:43.296Z,0.13
2023-02-02T05:36:10.615Z,0.78
2023-02-02T05:38:37.458Z,0.90
2023-02-02T05:41:05.094Z,1.05
2023-02-02T05:43:33.519Z,1.06
2023-02-02T05:46:00.823Z,0.81
2023-02-02T05:48:27.654Z,0.66
2023-02-02T05:51:06.395Z,0.71
2023-02-02T05:53:34.553Z,0.90
2023-02-02T05:56:01.538Z,1.18
2023-02-02T05:58:30.178Z,0.81
2023-02-02T06:00:57.058Z,0.92
2023-02-02T06:03:24.122Z,1.04
2023-02-02T06:05:51.084Z,0.84
2023-02-02T06:08:17.804Z,3.18
2023-02-02T06:10:45.015Z,4.07
2023-02-02T06:13:23.852Z,1.75
2023-02-02T06:15:50.845Z,1.96
2023-02-02T06:18:17.828Z,1.13
2023-02-02T06:20:46.635Z,1.34
2023-02-02T06:23:13.401Z,1.27
2023-02-02T06:25:40.186Z,0.80
2023-02-02T06:28:07.928Z,1.22
2023-02-02T06:30:34.966Z,0.90
2023-02-02T06:33:01.850Z,1.72
2023-02-02T06:35:29.035Z,2.05
2023-02-02T06:37:55.767Z,2.64
2023-02-02T06:40:22.711Z,2.73
2023-02-02T06:42:56.434Z,2.77
2023-02-02T06:45:24.042Z,3.05
2023-02-02T06:47:51.300Z,2.04
2023-02-02T06:50:18.354Z,1.81
2023-02-02T06:52:49.580Z,2.29
2023-02-02T06:55:17.374Z,3.28
2023-02-02T06:57:44.524Z,3.88
2023-02-02T07:00:12.276Z,4.57
2023-02-02T07:02:39.549Z,4.40
2023-02-02T07:05:06.662Z,5.02
2023-02-02T07:07:34.451Z,3.69
2023-02-02T07:10:03.199Z,4.02
2023-02-02T07:12:30.244Z,4.69
2023-02-02T07:14:59.511Z,4.24
2023-02-02T07:17:26.508Z,3.73
2023-02-02T07:19:53.785Z,3.44
2023-02-02T07:22:20.754Z,4.65
2023-02-02T07:24:47.925Z,4.08
2023-02-02T07:27:14.872Z,3.87
2023-02-02T07:29:41.667Z,3.74
2023-02-02T07:32:10.754Z,4.10
2023-02-02T07:34:39.201Z,3.16
2023-02-02T07:37:05.923Z,2.25
2023-02-02T07:39:32.957Z,2.23
2023-02-02T07:42:00.207Z,2.53
2023-02-02T07:44:26.990Z,2.78
2023-02-02T07:46:53.872Z,2.77
2023-02-02T07:49:20.926Z,3.18
2023-02-02T07:51:49.509Z,3.00
2023-02-02T07:54:16.735Z,3.20
2023-02-02T07:56:43.695Z,3.10
2023-02-02T07:59:11.531Z,2.91
2023-02-02T08:01:38.518Z,2.47
2023-02-02T08:04:06.562Z,3.07
2023-02-02T08:06:36.364Z,3.63
2023-02-02T08:09:05.576Z,3.92
2023-02-02T08:11:32.516Z,3.93
2023-02-02T08:14:01.559Z,3.90
2023-02-02T08:16:30.157Z,4.87
2023-02-02T08:18:57.710Z,4.62
2023-02-02T08:21:24.572Z,4.44
2023-02-02T08:23:52.865Z,5.31
2023-02-02T08:26:24.208Z,6.07
2023-02-02T08:29:09.540Z,5.60
2023-02-02T08:31:42.071Z,5.71
2023-02-02T08:34:10.061Z,5.71
2023-02-02T08:36:37.435Z,6.41
2023-02-02T08:39:09.810Z,5.93
2023-02-02T08:41:39.885Z,5.25
2023-02-02T08:44:11.215Z,6.36
2023-02-02T08:46:38.726Z,6.82
2023-02-02T08:49:05.671Z,6.26
2023-02-02T08:51:32.699Z,6.27
2023-02-02T08:53:59.645Z,5.67
2023-02-02T08:56:26.695Z,6.68
2023-02-02T08:58:55.851Z,6.79
2023-02-02T09:01:25.167Z,6.63
2023-02-02T09:03:57.503Z,6.73
2023-02-02T09:06:29.586Z,6.31
2023-02-02T09:08:57.071Z,6.72
2023-02-02T09:11:24.352Z,7.41
2023-02-02T09:13:56.706Z,7.34
2023-02-02T09:16:25.641Z,7.32
2023-02-02T09:18:53.265Z,8.15
2023-02-02T09:21:20.842Z,8.64
2023-02-02T09:23:49.849Z,8.17
2023-02-02T09:26:28.927Z,7.83
2023-02-02T09:29:03.010Z,8.19
2023-02-02T09:31:31.667Z,8.11
2023-02-02T09:34:06.777Z,8.19
2023-02-02T09:36:34.028Z,8.21
2023-02-02T09:39:01.726Z,8.11
2023-02-02T09:41:43.600Z,8.48
2023-02-02T09:44:14.144Z,9.26
2023-02-02T09:46:57.290Z,9.71
2023-02-02T09:49:34.216Z,8.88
2023-02-02T09:52:24.990Z,8.98
2023-02-02T09:54:58.290Z,9.29
2023-02-02T09:57:31.914Z,10.04
2023-02-02T09:59:59.547Z,10.14
2023-02-02T10:02:39.022Z,10.09
2023-02-02T10:05:20.136Z,9.99
2023-02-02T10:07:51.926Z,9.36
2023-02-02T10:10:26.602Z,10.10
2023-02-02T10:12:59.992Z,10.24
2023-02-02T10:16:17.474Z,10.25
2023-02-02T10:18:59.201Z,10.45
2023-02-02T10:21:44.090Z,10.13
2023-02-02T10:24:20.311Z,10.72
2023-02-02T10:26:51.838Z,10.91
2023-02-02T10:29:24.920Z,10.95
2023-02-02T10:32:10.971Z,11.02
2023-02-02T10:34:48.113Z,10.96
2023-02-02T10:37:38.118Z,10.93
2023-02-02T10:40:10.663Z,10.78
2023-02-02T10:43:12.130Z,11.26
2023-02-02T10:45:44.323Z,11.09
2023-02-02T10:48:22.366Z,11.53
2023-02-02T10:50:54.625Z,11.21
2023-02-02T10:53:22.992Z,11.14
2023-02-02T10:56:14.592Z,11.07
2023-02-02T10:59:05.075Z,10.96
2023-02-02T11:01:32.100Z,11.13
2023-02-02T11:04:17.606Z,11.06
2023-02-02T11:06:50.197Z,10.88
2023-02-02T11:09:41.584Z,10.40
2023-02-02T11:12:20.772Z,9.65
2023-02-02T11:14:52.816Z,10.22
2023-02-02T11:17:25.508Z,10.07
2023-02-02T11:19:55.904Z,10.54
2023-02-02T11:22:35.406Z,10.47
2023-02-02T11:25:27.404Z,10.71
2023-02-02T11:27:54.466Z,10.26
2023-02-02T11:30:28.593Z,10.42
2023-02-02T11:32:56.857Z,10.10
2023-02-02T11:35:26.098Z,9.82
2023-02-02T11:38:16.334Z,10.15
2023-02-02T11:40:54.428Z,10.01
2023-02-02T11:43:45.183Z,10.20
2023-02-02T11:46:25.618Z,9.89
2023-02-02T11:49:04.318Z,9.66
2023-02-02T11:51:32.453Z,9.77
2023-02-02T11:54:07.645Z,9.74
2023-02-02T11:56:39.900Z,10.06
2023-02-02T11:59:28.754Z,10.40
2023-02-02T12:02:19.675Z,10.28
2023-02-02T12:04:48.516Z,10.63
2023-02-02T12:07:26.806Z,10.38
2023-02-02T12:09:57.561Z,10.61
2023-02-02T12:12:50.807Z,10.57
2023-02-02T12:15:59.937Z,10.54
2023-02-02T12:18:26.842Z,10.47
2023-02-02T12:21:06.789Z,10.56
2023-02-02T12:23:55.473Z,10.58
2023-02-02T12:26:34.486Z,10.55
2023-02-02T12:29:14.991Z,10.68
2023-02-02T12:32:20.075Z,10.71
2023-02-02T12:35:12.691Z,10.57
2023-02-02T12:38:17.317Z,11.16
2023-02-02T12:40:51.499Z,11.62
2023-02-02T12:43:33.521Z,11.65
2023-02-02T12:46:26.885Z,11.49
2023-02-02T12:49:16.033Z,11.78
2023-02-02T12:51:53.720Z,11.77
2023-02-02T12:54:47.530Z,11.72
2023-02-02T12:57:34.210Z,11.66
2023-02-02T13:00:12.285Z,11.68
2023-02-02T13:03:05.738Z,11.53
2023-02-02T13:05:44.592Z,11.82
2023-02-02T13:08:35.690Z,11.52
2023-02-02T13:11:30.210Z,11.16
2023-02-02T13:14:23.752Z,11.30
2023-02-02T13:16:54.770Z,11.58
2023-02-02T13:19:31.742Z,11.57
2023-02-02T13:22:00.914Z,11.64
2023-02-02T13:24:33.921Z,11.63
2023-02-02T13:27:06.432Z,11.32
2023-02-02T13:29:48.305Z,11.31
2023-02-02T13:32:41.143Z,11.25
2023-02-02T13:35:37.403Z,11.14
2023-02-02T13:38:25.020Z,11.23
2023-02-02T13:40:55.791Z,11.30
2023-02-02T13:43:43.999Z,11.41
2023-02-02T13:46:45.165Z,11.54
2023-02-02T13:49:34.732Z,11.54
2023-02-02T13:52:31.860Z,11.35
2023-02-02T13:55:14.294Z,11.17
2023-02-02T13:58:14.916Z,11.20
2023-02-02T14:00:49.660Z,11.00
2023-02-02T14:03:38.706Z,10.87
2023-02-02T14:06:21.863Z,10.59
2023-02-02T14:08:59.351Z,10.52
2023-02-02T14:11:33.429Z,10.44
2023-02-02T14:14:29.066Z,10.38
2023-02-02T14:16:56.831Z,10.34
2023-02-02T14:19:35.724Z,10.45
2023-02-02T14:22:19.363Z,10.41
2023-02-02T14:24:48.846Z,10.27
2023-02-02T14:27:15.739Z,10.26
2023-02-02T14:29:46.733Z,10.29
2023-02-02T14:32:29.151Z,10.20
2023-02-02T14:34:57.116Z,10.30
2023-02-02T14:37:26.906Z,10.42
2023-02-02T14:40:04.567Z,10.41
2023-02-02T14:43:23.691Z,10.49
2023-02-02T14:46:13.609Z,10.50
2023-02-02T14:48:42.620Z,10.31
2023-02-02T14:51:30.885Z,10.27
2023-02-02T14:54:05.252Z,10.22
2023-02-02T14:57:19.063Z,10.26
2023-02-02T14:59:47.789Z,10.10
2023-02-02T15:02:25.342Z,9.94
2023-02-02T15:04:52.356Z,9.60
2023-02-02T15:07:25.101Z,9.61
2023-02-02T15:09:56.792Z,9.62
2023-02-02T15:12:33.165Z,9.37
2023-02-02T15:15:25.438Z,9.33
2023-02-02T15:18:07.732Z,9.07
2023-02-02T15:20:41.071Z,9.03
2023-02-02T15:23:29.712Z,8.94
2023-02-02T15:26:25.135Z,8.74
2023-02-02T15:28:57.399Z,8.74
2023-02-02T15:31:33.459Z,8.71
2023-02-02T15:34:30.818Z,8.43
2023-02-02T15:37:03.150Z,8.11
2023-02-02T15:39:41.992Z,7.76
2023-02-02T15:42:53.730Z,7.51
2023-02-02T15:45:43.493Z,7.50
2023-02-02T15:48:31.842Z,6.69
2023-02-02T15:51:05.405Z,6.44
2023-02-02T15:53:41.403Z,6.40
2023-02-02T15:56:19.590Z,6.22
2023-02-02T15:58:52.567Z,6.26
2023-02-02T16:01:22.200Z,6.34
2023-02-02T16:03:52.882Z,6.43
2023-02-02T16:06:23.662Z,6.58
2023-02-02T16:08:50.651Z,6.21
2023-02-02T16:11:23.917Z,6.12
2023-02-02T16:13:58.572Z,6.37
2023-02-02T16:16:29.120Z,6.38
2023-02-02T16:19:08.928Z,6.53
2023-02-02T16:21:41.843Z,6.62
2023-02-02T16:24:28.478Z,6.15
2023-02-02T16:27:00.046Z,6.24
2023-02-02T16:29:28.283Z,6.35
2023-02-02T16:31:58.450Z,6.28
2023-02-02T16:34:41.028Z,6.26
2023-02-02T16:37:27.748Z,6.37
2023-02-02T16:40:30.316Z,6.47
2023-02-02T16:43:19.879Z,6.33
2023-02-02T16:45:52.862Z,6.26
2023-02-02T16:48:25.914Z,6.32
2023-02-02T16:51:33.809Z,6.46
2023-02-02T16:54:26.771Z,6.54
2023-02-02T16:57:10.913Z,6.40
2023-02-02T16:59:39.157Z,6.52
2023-02-02T17:02:26.247Z,6.32
2023-02-02T17:05:00.331Z,6.07
2023-02-02T17:07:37.837Z,6.18
2023-02-02T17:10:30.128Z,6.17
2023-02-02T17:13:00.603Z,6.24
2023-02-02T17:15:35.234Z,5.78
2023-02-02T17:18:04.093Z,5.79
2023-02-02T17:20:31.336Z,5.57
2023-02-02T17:23:10.094Z,5.38
2023-02-02T17:25:43.636Z,4.93
2023-02-02T17:28:13.969Z,4.84
2023-02-02T17:30:46.041Z,4.73
2023-02-02T17:33:17.295Z,4.49
2023-02-02T17:35:55.649Z,4.64
2023-02-02T17:38:25.086Z,4.68
2023-02-02T17:40:53.087Z,4.62
2023-02-02T17:43:19.858Z,4.65
2023-02-02T17:45:49.947Z,4.74
2023-02-02T17:48:16.927Z,4.60
2023-02-02T17:50:44.266Z,4.86
2023-02-02T17:53:17.170Z,4.86
2023-02-02T17:55:45.916Z,5.05
2023-02-02T17:58:17.577Z,5.14
2023-02-02T18:00:47.276Z,5.01
2023-02-02T18:06:17.816Z,4.96
2023-02-02T18:08:45.671Z,5.06
2023-02-02T18:11:14.606Z,5.37
2023-02-02T18:13:43.464Z,5.40
2023-02-02T18:16:12.482Z,5.45
2023-02-02T18:18:39.982Z,5.67
2023-02-02T18:21:11.432Z,5.15
2023-02-02T18:23:38.752Z,4.84
2023-02-02T18:26:22.359Z,4.90
2023-02-02T18:28:50.518Z,5.11
2023-02-02T18:31:20.794Z,5.07
2023-02-02T18:33:48.379Z,5.08
2023-02-02T18:36:20.411Z,5.29
2023-02-02T18:38:49.087Z,5.26
2023-02-02T18:41:18.259Z,5.09
2023-02-02T18:43:45.727Z,4.77
2023-02-02T18:46:14.892Z,4.79
2023-02-02T18:48:42.807Z,4.84
2023-02-02T18:51:16.999Z,4.67
2023-02-02T18:56:33.686Z,4.51
2023-02-02T18:59:00.852Z,4.45
2023-02-02T19:01:27.953Z,4.65
2023-02-02T19:03:57.300Z,4.57
2023-02-02T19:06:43.072Z,4.54
2023-02-02T19:09:09.901Z,4.44
2023-02-02T19:11:44.332Z,4.48
2023-02-02T19:14:26.613Z,4.64
2023-02-02T19:16:59.504Z,4.67
2023-02-02T19:19:30.378Z,4.62
2023-02-02T19:21:59.250Z,4.67
2023-02-02T19:24:34.950Z,4.62
2023-02-02T19:27:03.974Z,4.70
2023-02-02T19:29:36.069Z,4.51
2023-02-02T19:32:12.895Z,4.95
2023-02-02T19:34:40.105Z,4.71
2023-02-02T19:37:31.193Z,4.84
2023-02-02T19:40:16.439Z,4.79
2023-02-02T19:42:56.452Z,5.04
2023-02-02T19:45:27.892Z,5.11
2023-02-02T19:47:57.314Z,5.13
2023-02-02T19:50:32.293Z,4.78
2023-02-02T19:52:59.853Z,4.64
2023-02-02T19:55:29.388Z,4.88
2023-02-02T19:58:14.128Z,4.74
2023-02-02T20:00:41.518Z,4.75
2023-02-02T20:03:20.944Z,4.67
2023-02-02T20:05:49.762Z,4.60
2023-02-02T20:08:44.916Z,4.61
2023-02-02T20:11:23.942Z,4.65
2023-02-02T20:13:52.006Z,4.63
2023-02-02T20:16:20.796Z,4.80
2023-02-02T20:18:55.555Z,4.94
2023-02-02T20:21:45.946Z,4.95
2023-02-02T20:24:25.974Z,4.68
2023-02-02T20:26:54.948Z,4.77
2023-02-02T20:29:23.602Z,4.62
2023-02-02T20:31:53.421Z,4.87
2023-02-02T20:34:35.687Z,4.50
2023-02-02T20:37:15.064Z,4.61
2023-02-02T20:39:47.892Z,4.70
2023-02-02T20:42:15.645Z,4.96
2023-02-02T20:44:42.921Z,5.13
2023-02-02T20:47:10.185Z,4.48
2023-02-02T20:49:38.021Z,4.47
2023-02-02T20:52:08.268Z,4.61
2023-02-02T20:54:46.309Z,4.49
2023-02-02T20:57:13.436Z,4.60
2023-02-02T20:59:40.314Z,4.88
2023-02-02T21:02:08.355Z,4.76
2023-02-02T21:04:35.203Z,4.69
2023-02-02T21:07:02.101Z,4.53
2023-02-02T21:09:29.051Z,4.61
2023-02-02T21:11:55.719Z,4.59
2023-02-02T21:14:28.831Z,4.58
2023-02-02T21:17:09.077Z,4.49
2023-02-02T21:19:41.199Z,4.42
2023-02-02T21:22:08.003Z,4.39
2023-02-02T21:24:35.021Z,3.94
2023-02-02T21:27:03.422Z,4.41
2023-02-02T21:29:32.100Z,4.58
2023-02-02T21:32:02.636Z,4.41
2023-02-02T21:34:31.272Z,4.10
2023-02-02T21:36:59.467Z,4.26
2023-02-02T21:39:26.350Z,4.52
2023-02-02T21:42:08.613Z,4.40
2023-02-02T21:44:41.658Z,4.75
2023-02-02T21:47:29.258Z,4.76
2023-02-02T21:49:59.551Z,4.64
2023-02-02T21:52:32.604Z,4.64
2023-02-02T21:55:00.430Z,4.47
2023-02-02T21:57:37.438Z,4.51
2023-02-02T22:00:28.058Z,4.66
2023-02-02T22:02:55.196Z,4.68
2023-02-02T22:05:35.635Z,4.23
2023-02-02T22:08:18.414Z,4.15
2023-02-02T22:10:45.632Z,4.14
2023-02-02T22:13:20.666Z,4.31
2023-02-02T22:15:50.116Z,4.12
2023-02-02T22:18:21.890Z,4.38
2023-02-02T22:20:54.561Z,4.42
2023-02-02T22:23:24.240Z,4.40
2023-02-02T22:25:58.682Z,4.27
2023-02-02T22:28:30.297Z,4.60
2023-02-02T22:30:58.782Z,4.45
2023-02-02T22:36:07.738Z,4.50
2023-02-02T22:38:34.484Z,4.26
2023-02-02T22:41:01.284Z,4.45
2023-02-02T22:43:28.688Z,4.38
2023-02-02T22:45:55.556Z,4.45
2023-02-02T22:48:22.323Z,4.43
2023-02-02T22:50:49.551Z,4.30
2023-02-02T22:53:18.910Z,4.38
2023-02-02T22:55:45.641Z,4.39
2023-02-02T22:58:12.891Z,4.32
2023-02-02T23:00:39.852Z,4.31
2023-02-02T23:03:06.771Z,4.18
2023-02-02T23:05:33.742Z,3.89
2023-02-02T23:08:00.513Z,3.87
2023-02-02T23:10:29.720Z,3.92
2023-02-02T23:12:58.929Z,3.69
2023-02-02T23:15:31.598Z,3.77
2023-02-02T23:17:58.537Z,3.96
2023-02-02T23:20:25.701Z,4.11
2023-02-02T23:22:52.579Z,3.97
2023-02-02T23:25:19.604Z,4.35
2023-02-02T23:27:46.601Z,4.40
2023-02-02T23:30:14.496Z,4.20
2023-02-02T23:32:41.779Z,4.22
2023-02-02T23:35:15.712Z,4.10
2023-02-02T23:37:42.573Z,4.19
2023-02-02T23:40:09.988Z,4.31
2023-02-02T23:42:37.936Z,4.23
2023-02-02T23:45:05.321Z,4.38
2023-02-02T23:47:38.407Z,4.50
2023-02-02T23:50:07.727Z,4.51
2023-02-02T23:52:35.517Z,4.03
2023-02-02T23:55:03.584Z,4.19
2023-02-02T23:57:30.828Z,4.64
